createdAt,value
2018-05-04T00:01:12.758Z,10.10
2018-05-04T00:03:40.234Z,10.10
2018-05-04T00:06:07.720Z,10.10
2018-05-04T00:08:35.205Z,10.10
2018-05-04T00:11:02.700Z,10.00
2018-05-04T00:13:30.190Z,10.00
2018-05-04T00:15:57.674Z,9.90
2018-05-04T00:18:25.151Z,9.90
2018-05-04T00:20:52.642Z,9.90
2018-05-04T00:23:20.886Z,9.90
2018-05-04T00:25:48.374Z,9.90
2018-05-04T00:28:16.622Z,9.80
2018-05-04T00:30:44.109Z,9.80
2018-05-04T00:33:11.589Z,9.80
2018-05-04T00:35:39.841Z,9.70
2018-05-04T00:38:07.323Z,9.70
2018-05-04T00:40:35.574Z,9.70
2018-05-04T00:43:03.041Z,9.60
2018-05-04T00:45:31.306Z,9.60
2018-05-04T00:47:58.798Z,9.60
2018-05-04T00:50:26.295Z,9.60
2018-05-04T00:52:53.813Z,9.60
2018-05-04T00:55:21.293Z,9.60
2018-05-04T00:57:48.774Z,9.60
2018-05-04T01:00:16.259Z,9.60
2018-05-04T01:02:43.734Z,9.60
2018-05-04T01:05:11.988Z,9.70
2018-05-04T01:07:39.464Z,9.70
2018-05-04T01:10:07.714Z,9.70
2018-05-04T01:12:35.185Z,9.60
2018-05-04T01:15:02.687Z,9.60
2018-05-04T01:17:30.175Z,9.60
2018-05-04T01:19:57.651Z,9.60
2018-05-04T01:22:25.162Z,9.60
2018-05-04T01:24:52.648Z,9.60
2018-05-04T01:27:20.138Z,9.60
2018-05-04T01:29:48.393Z,9.60
2018-05-04T01:32:15.885Z,9.60
2018-05-04T01:34:44.165Z,9.60
2018-05-04T01:37:12.423Z,9.60
2018-05-04T01:39:39.888Z,9.60
2018-05-04T01:42:08.146Z,9.50
2018-05-04T01:44:35.625Z,9.60
2018-05-04T01:47:04.260Z,9.50
2018-05-04T01:49:32.553Z,9.50
2018-05-04T01:52:00.055Z,9.50
2018-05-04T01:54:28.304Z,9.60
2018-05-04T01:56:55.789Z,9.50
2018-05-04T01:59:24.024Z,9.50
2018-05-04T02:01:52.270Z,9.50
2018-05-04T02:04:19.759Z,9.50
2018-05-04T02:06:47.238Z,9.50
2018-05-04T02:09:14.710Z,9.50
2018-05-04T02:11:42.956Z,9.50
2018-05-04T02:14:10.433Z,9.40
2018-05-04T02:16:38.690Z,9.40
2018-05-04T02:19:06.175Z,9.40
2018-05-04T02:21:34.497Z,9.40
2018-05-04T02:24:01.975Z,9.40
2018-05-04T02:26:29.476Z,9.40
2018-05-04T02:28:57.735Z,9.30
2018-05-04T02:31:25.225Z,9.30
2018-05-04T02:33:52.715Z,9.30
2018-05-04T02:36:20.210Z,9.30
2018-05-04T02:38:47.689Z,9.30
2018-05-04T02:41:15.938Z,9.20
2018-05-04T02:43:43.419Z,9.10
2018-05-04T02:46:11.673Z,9.10
2018-05-04T02:48:39.153Z,9.00
2018-05-04T02:51:07.398Z,9.00
2018-05-04T02:53:34.885Z,8.90
2018-05-04T02:56:03.154Z,8.80
2018-05-04T02:58:31.399Z,8.80
2018-05-04T03:00:58.888Z,8.80
2018-05-04T03:03:27.135Z,8.70
2018-05-04T03:05:54.645Z,8.70
2018-05-04T03:08:22.126Z,8.60
2018-05-04T03:10:49.622Z,8.60
2018-05-04T03:13:17.100Z,8.60
2018-05-04T03:15:45.355Z,8.50
2018-05-04T03:18:12.848Z,8.50
2018-05-04T03:20:40.330Z,8.50
2018-05-04T03:23:07.809Z,8.50
2018-05-04T03:25:35.298Z,8.40
2018-05-04T03:28:03.587Z,8.40
2018-05-04T03:30:31.853Z,8.30
2018-05-04T03:33:00.098Z,8.20
2018-05-04T03:35:27.606Z,8.20
2018-05-04T03:37:55.090Z,8.30
2018-05-04T03:40:22.591Z,8.30
2018-05-04T03:42:50.161Z,8.30
2018-05-04T03:45:17.590Z,8.40
2018-05-04T03:47:45.074Z,8.50
2018-05-04T03:50:13.332Z,8.70
2018-05-04T03:52:40.811Z,8.70
2018-05-04T03:55:09.069Z,8.70
2018-05-04T03:57:48.352Z,8.70
2018-05-04T04:00:27.746Z,8.80
2018-05-04T04:03:07.057Z,8.80
2018-05-04T04:05:34.546Z,8.70
2018-05-04T04:08:02.019Z,8.60
2018-05-04T04:10:30.271Z,8.50
2018-05-04T04:12:57.759Z,8.40
2018-05-04T04:15:26.002Z,8.40
2018-05-04T04:17:53.481Z,8.40
2018-05-04T04:20:21.741Z,8.50
2018-05-04T04:22:49.226Z,8.50
2018-05-04T04:25:17.474Z,8.40
2018-05-04T04:27:44.963Z,8.40
2018-05-04T04:30:13.219Z,8.40
2018-05-04T04:32:41.487Z,8.40
2018-05-04T04:35:08.986Z,8.40
2018-05-04T04:37:36.467Z,8.50
2018-05-04T04:40:03.964Z,8.50
2018-05-04T04:42:31.437Z,8.50
2018-05-04T04:44:59.695Z,8.60
2018-05-04T04:47:27.197Z,8.60
2018-05-04T04:49:54.696Z,8.60
2018-05-04T04:52:22.199Z,8.70
2018-05-04T04:54:50.443Z,8.60
2018-05-04T04:57:17.935Z,8.60
2018-05-04T04:59:45.430Z,8.60
2018-05-04T05:02:12.929Z,8.60
2018-05-04T05:04:40.417Z,8.70
2018-05-04T05:07:07.909Z,8.70
2018-05-04T05:09:35.384Z,8.70
2018-05-04T05:12:02.882Z,8.70
2018-05-04T05:14:31.121Z,8.80
2018-05-04T05:16:58.602Z,8.80
2018-05-04T05:19:26.110Z,9.40
2018-05-04T05:21:53.658Z,9.60
2018-05-04T05:24:21.122Z,10.20
2018-05-04T05:26:48.614Z,10.60
2018-05-04T05:29:16.080Z,10.50
2018-05-04T05:31:43.570Z,10.30
2018-05-04T05:34:11.814Z,10.00
2018-05-04T05:36:39.302Z,10.00
2018-05-04T05:39:07.541Z,9.90
2018-05-04T05:41:35.038Z,9.90
2018-05-04T05:44:03.286Z,9.90
2018-05-04T05:46:30.785Z,9.90
2018-05-04T05:48:58.265Z,9.90
2018-05-04T05:51:25.748Z,9.90
2018-05-04T05:53:53.216Z,9.90
2018-05-04T05:56:20.701Z,9.90
2018-05-04T05:58:48.963Z,10.00
2018-05-04T06:01:17.241Z,10.10
2018-05-04T06:03:44.718Z,10.10
2018-05-04T06:06:12.974Z,10.20
2018-05-04T06:08:40.455Z,10.20
2018-05-04T06:11:07.958Z,10.30
2018-05-04T06:13:35.449Z,10.40
2018-05-04T06:16:02.939Z,10.40
2018-05-04T06:18:30.414Z,10.50
2018-05-04T06:20:57.900Z,10.60
2018-05-04T06:23:25.405Z,10.60
2018-05-04T06:25:52.933Z,10.70
2018-05-04T06:28:20.429Z,10.80
2018-05-04T06:30:47.936Z,10.90
2018-05-04T06:33:15.424Z,11.00
2018-05-04T06:35:43.704Z,11.10
2018-05-04T06:38:11.948Z,11.20
2018-05-04T06:40:39.433Z,11.20
2018-05-04T06:43:07.706Z,11.40
2018-05-04T06:45:35.966Z,11.50
2018-05-04T06:48:03.459Z,11.40
2018-05-04T06:50:31.806Z,11.60
2018-05-04T06:52:59.290Z,11.60
2018-05-04T06:55:27.543Z,11.80
2018-05-04T06:57:55.021Z,11.70
2018-05-04T07:00:23.319Z,12.00
2018-05-04T07:02:50.811Z,12.00
2018-05-04T07:05:18.304Z,12.10
2018-05-04T07:07:46.553Z,12.40
2018-05-04T07:10:14.120Z,12.40
2018-05-04T07:12:41.625Z,12.60
2018-05-04T07:15:09.105Z,12.70
2018-05-04T07:17:36.590Z,12.90
2018-05-04T07:20:04.112Z,13.10
2018-05-04T07:22:32.342Z,13.30
2018-05-04T07:24:59.840Z,13.20
2018-05-04T07:27:27.328Z,13.40
2018-05-04T07:29:54.812Z,13.50
2018-05-04T07:32:22.307Z,13.60
2018-05-04T07:34:49.782Z,13.80
2018-05-04T07:37:17.282Z,13.90
2018-05-04T07:39:44.762Z,14.00
2018-05-04T07:42:13.012Z,14.30
2018-05-04T07:44:40.490Z,14.30
2018-05-04T07:47:08.746Z,14.40
2018-05-04T07:49:36.223Z,14.40
2018-05-04T07:52:03.716Z,14.30
2018-05-04T07:54:31.212Z,14.40
2018-05-04T07:56:58.697Z,14.40
2018-05-04T07:59:26.172Z,14.70
2018-05-04T08:01:54.425Z,15.10
2018-05-04T08:04:21.902Z,15.10
2018-05-04T08:06:50.245Z,15.20
2018-05-04T08:09:17.713Z,15.20
2018-05-04T08:11:45.200Z,15.30
2018-05-04T08:14:13.453Z,15.60
2018-05-04T08:16:40.952Z,15.60
2018-05-04T08:19:08.442Z,15.70
2018-05-04T08:21:35.921Z,15.70
2018-05-04T08:24:03.398Z,15.80
2018-05-04T08:26:31.673Z,16.10
2018-05-04T08:28:59.913Z,16.20
2018-05-04T08:31:27.396Z,16.20
2018-05-04T08:33:54.879Z,16.50
2018-05-04T08:36:23.157Z,16.80
2018-05-04T08:38:50.678Z,16.80
2018-05-04T08:41:18.160Z,16.90
2018-05-04T08:43:46.402Z,17.20
2018-05-04T08:46:13.888Z,17.20
2018-05-04T08:48:41.368Z,17.40
2018-05-04T08:51:08.897Z,17.60
2018-05-04T08:53:36.405Z,17.80
2018-05-04T08:56:03.941Z,17.90
2018-05-04T08:58:32.183Z,17.90
2018-05-04T09:00:59.669Z,17.90
2018-05-04T09:03:27.925Z,18.20
2018-05-04T09:05:55.415Z,18.20
2018-05-04T09:08:22.979Z,18.60
2018-05-04T09:10:50.409Z,18.80
2018-05-04T09:13:18.657Z,19.10
2018-05-04T09:15:46.157Z,19.10
2018-05-04T09:18:14.413Z,19.40
2018-05-04T09:20:41.893Z,19.40
2018-05-04T09:23:10.147Z,20.00
2018-05-04T09:25:37.703Z,20.00
2018-05-04T09:28:05.205Z,20.00
2018-05-04T09:30:32.704Z,20.40
2018-05-04T09:33:00.209Z,20.70
2018-05-04T09:35:27.703Z,21.10
2018-05-04T09:37:55.213Z,21.40
2018-05-04T09:40:23.473Z,21.00
2018-05-04T09:42:51.120Z,21.00
2018-05-04T09:45:18.581Z,20.60
2018-05-04T09:47:46.067Z,20.80
2018-05-04T09:50:14.343Z,21.60
2018-05-04T09:52:42.601Z,21.60
2018-05-04T09:55:10.145Z,21.60
2018-05-04T09:57:37.634Z,21.80
2018-05-04T10:00:05.896Z,22.00
2018-05-04T10:02:33.376Z,21.90
2018-05-04T10:05:01.624Z,22.10
2018-05-04T10:07:29.124Z,22.10
2018-05-04T10:09:56.608Z,22.20
2018-05-04T10:12:24.136Z,22.20
2018-05-04T10:14:52.386Z,22.30
2018-05-04T10:17:19.878Z,22.30
2018-05-04T10:19:47.353Z,22.20
2018-05-04T10:22:14.842Z,22.40
2018-05-04T10:24:42.328Z,22.50
2018-05-04T10:27:10.578Z,22.30
2018-05-04T10:29:38.063Z,22.30
2018-05-04T10:32:06.315Z,22.10
2018-05-04T10:34:33.792Z,22.10
2018-05-04T10:37:02.042Z,22.40
2018-05-04T10:39:29.521Z,22.50
2018-05-04T10:41:57.013Z,22.50
2018-05-04T10:44:24.499Z,22.80
2018-05-04T10:46:52.064Z,22.60
2018-05-04T10:49:19.545Z,22.90
2018-05-04T10:51:47.048Z,23.00
2018-05-04T10:54:14.529Z,23.10
2018-05-04T10:56:42.009Z,23.40
2018-05-04T10:59:09.485Z,23.70
2018-05-04T11:01:36.995Z,23.40
2018-05-04T11:04:04.481Z,23.40
2018-05-04T11:06:31.989Z,23.60
2018-05-04T11:08:59.482Z,23.70
2018-05-04T11:11:26.976Z,23.50
2018-05-04T11:13:54.468Z,23.40
2018-05-04T11:16:21.953Z,23.40
2018-05-04T11:18:49.418Z,23.70
2018-05-04T11:21:16.908Z,23.90
2018-05-04T11:23:44.385Z,24.00
2018-05-04T11:26:12.660Z,23.90
2018-05-04T11:28:40.896Z,23.80
2018-05-04T11:31:08.391Z,23.80
2018-05-04T11:33:36.643Z,24.20
2018-05-04T11:36:04.143Z,24.20
2018-05-04T11:38:31.627Z,24.20
2018-05-04T11:40:59.122Z,24.40
2018-05-04T11:43:26.625Z,24.30
2018-05-04T11:45:54.938Z,24.00
2018-05-04T11:48:22.419Z,24.00
2018-05-04T11:50:49.905Z,24.20
2018-05-04T11:53:18.137Z,24.90
2018-05-04T11:55:45.639Z,24.90
2018-05-04T11:58:13.884Z,24.80
2018-05-04T12:00:41.360Z,24.80
2018-05-04T12:03:09.605Z,24.80
2018-05-04T12:05:37.088Z,24.80
2018-05-04T12:08:04.571Z,24.30
2018-05-04T12:10:32.105Z,24.30
2018-05-04T12:12:59.592Z,24.60
2018-05-04T12:15:27.081Z,24.70
2018-05-04T12:17:54.568Z,24.90
2018-05-04T12:20:22.049Z,24.90
2018-05-04T12:22:50.363Z,24.60
2018-05-04T12:25:17.814Z,24.60
2018-05-04T12:27:45.290Z,24.90
2018-05-04T12:30:13.177Z,24.90
2018-05-04T12:32:40.665Z,24.90
2018-05-04T12:35:08.946Z,24.70
2018-05-04T12:37:37.190Z,25.00
2018-05-04T12:40:04.673Z,25.00
2018-05-04T12:42:32.914Z,24.40
2018-05-04T12:45:00.398Z,24.40
2018-05-04T12:47:27.885Z,24.60
2018-05-04T12:49:55.371Z,25.00
2018-05-04T12:52:23.675Z,25.20
2018-05-04T12:54:51.176Z,25.50
2018-05-04T12:57:19.439Z,25.30
2018-05-04T12:59:47.683Z,25.30
2018-05-04T13:02:15.178Z,25.30
2018-05-04T13:04:43.485Z,24.90
2018-05-04T13:07:10.987Z,24.90
2018-05-04T13:09:38.465Z,25.40
2018-05-04T13:12:06.748Z,25.90
2018-05-04T13:14:35.444Z,25.90
2018-05-04T13:17:03.728Z,26.40
2018-05-04T13:19:31.215Z,26.30
2018-05-04T13:21:58.697Z,26.20
2018-05-04T13:24:26.181Z,26.20
2018-05-04T13:26:54.438Z,26.20
2018-05-04T13:29:22.050Z,26.10
2018-05-04T13:31:49.561Z,26.30
2018-05-04T13:34:17.043Z,27.10
2018-05-04T13:36:45.311Z,27.80
2018-05-04T13:39:13.559Z,28.30
2018-05-04T13:41:41.068Z,28.20
2018-05-04T13:44:08.553Z,28.60
2018-05-04T13:46:36.062Z,28.90
2018-05-04T13:49:04.311Z,29.40
2018-05-04T13:51:31.907Z,29.40
2018-05-04T13:53:59.327Z,28.80
2018-05-04T13:56:26.833Z,28.90
2018-05-04T13:58:54.318Z,28.90
2018-05-04T14:01:21.850Z,28.70
2018-05-04T14:03:49.383Z,29.30
2018-05-04T14:06:16.845Z,29.70
2018-05-04T14:08:45.091Z,29.20
2018-05-04T14:11:12.681Z,29.20
2018-05-04T14:13:40.163Z,29.10
2018-05-04T14:16:07.666Z,29.40
2018-05-04T14:18:35.144Z,29.00
2018-05-04T14:21:02.776Z,28.90
2018-05-04T14:23:30.266Z,28.20
2018-05-04T14:25:57.755Z,27.00
2018-05-04T14:28:25.994Z,25.50
2018-05-04T14:30:53.489Z,25.50
2018-05-04T14:33:27.748Z,25.40
2018-05-04T14:35:55.239Z,25.40
2018-05-04T14:38:22.721Z,25.90
2018-05-04T14:40:50.215Z,26.70
2018-05-04T14:43:17.693Z,26.50
2018-05-04T14:45:45.201Z,26.10
2018-05-04T14:48:12.710Z,25.30
2018-05-04T14:50:40.214Z,24.70
2018-05-04T14:53:07.697Z,24.10
2018-05-04T14:55:35.194Z,23.80
2018-05-04T14:58:02.694Z,23.60
2018-05-04T15:00:30.183Z,23.40
2018-05-04T15:02:57.683Z,23.40
2018-05-04T15:05:25.237Z,23.30
2018-05-04T15:07:52.881Z,23.00
2018-05-04T15:10:20.378Z,22.80
2018-05-04T15:12:48.625Z,22.60
2018-05-04T15:15:16.121Z,22.50
2018-05-04T15:17:43.614Z,22.50
2018-05-04T15:20:11.113Z,22.30
2018-05-04T15:22:38.615Z,22.30
2018-05-04T15:25:06.803Z,22.20
2018-05-04T15:27:34.303Z,22.00
2018-05-04T15:30:01.795Z,22.10
2018-05-04T15:32:29.289Z,21.90
2018-05-04T15:34:56.777Z,21.80
2018-05-04T15:37:24.269Z,21.70
2018-05-04T15:39:51.805Z,21.50
2018-05-04T15:42:19.283Z,21.40
2018-05-04T15:44:47.754Z,21.30
2018-05-04T15:47:16.011Z,21.20
2018-05-04T15:49:43.497Z,21.20
2018-05-04T15:52:10.997Z,21.20
2018-05-04T15:54:38.508Z,21.00
2018-05-04T15:57:06.775Z,20.90
2018-05-04T15:59:35.055Z,20.80
2018-05-04T16:02:02.554Z,20.80
2018-05-04T16:04:30.039Z,20.70
2018-05-04T16:06:57.530Z,20.50
2018-05-04T16:09:25.783Z,20.40
2018-05-04T16:11:53.269Z,20.40
2018-05-04T16:14:21.518Z,20.30
2018-05-04T16:16:49.004Z,20.20
2018-05-04T16:19:16.483Z,20.10
2018-05-04T16:21:43.994Z,20.00
2018-05-04T16:24:11.473Z,19.90
2018-05-04T16:26:39.738Z,19.80
2018-05-04T16:29:07.999Z,19.70
2018-05-04T16:31:35.493Z,19.70
2018-05-04T16:34:02.979Z,19.70
2018-05-04T16:36:30.467Z,19.60
2018-05-04T16:38:57.999Z,19.50
2018-05-04T16:41:25.600Z,19.40
2018-05-04T16:43:53.079Z,19.40
2018-05-04T16:46:27.058Z,19.20
2018-05-04T16:49:00.245Z,19.20
2018-05-04T16:51:27.750Z,19.10
2018-05-04T16:53:55.236Z,18.90
2018-05-04T16:56:22.749Z,18.80
2018-05-04T16:58:50.228Z,18.80
2018-05-04T17:01:17.721Z,18.70
2018-05-04T17:03:45.208Z,18.60
2018-05-04T17:06:12.856Z,18.60
2018-05-04T17:08:40.411Z,18.60
2018-05-04T17:11:07.974Z,18.50
2018-05-04T17:13:35.455Z,18.40
2018-05-04T17:16:03.729Z,18.40
2018-05-04T17:18:31.262Z,18.40
2018-05-04T17:20:58.757Z,18.40
2018-05-04T17:23:27.017Z,18.20
2018-05-04T17:25:54.506Z,18.20
2018-05-04T17:28:22.758Z,18.00
2018-05-04T17:30:51.016Z,17.90
2018-05-04T17:33:18.505Z,17.90
2018-05-04T17:35:46.813Z,17.80
2018-05-04T17:38:14.336Z,17.80
2018-05-04T17:40:42.606Z,17.70
2018-05-04T17:43:10.085Z,17.70
2018-05-04T17:45:38.361Z,17.50
2018-05-04T17:48:05.845Z,17.50
2018-05-04T17:50:33.334Z,17.50
2018-05-04T17:53:00.814Z,17.40
2018-05-04T17:55:28.302Z,17.30
2018-05-04T17:57:55.778Z,17.30
2018-05-04T18:00:23.276Z,17.20
2018-05-04T18:02:50.758Z,17.20
2018-05-04T18:05:19.022Z,17.10
2018-05-04T18:07:46.501Z,17.10
2018-05-04T18:10:14.030Z,17.00
2018-05-04T18:12:41.489Z,16.90
2018-05-04T18:15:08.982Z,16.90
2018-05-04T18:17:37.238Z,16.70
2018-05-04T18:20:05.498Z,16.70
2018-05-04T18:22:32.987Z,16.70
2018-05-04T18:25:01.237Z,16.60
2018-05-04T18:27:28.731Z,16.60
2018-05-04T18:29:56.218Z,16.50
2018-05-04T18:32:24.273Z,16.50
2018-05-04T18:34:51.749Z,16.40
2018-05-04T18:37:19.386Z,16.30
2018-05-04T18:39:46.862Z,16.20
2018-05-04T18:42:14.351Z,16.20
2018-05-04T18:44:41.830Z,16.10
2018-05-04T18:47:10.181Z,15.90
2018-05-04T18:49:37.741Z,15.90
2018-05-04T18:52:05.257Z,15.80
2018-05-04T18:54:32.767Z,15.80
2018-05-04T18:57:00.252Z,15.80
2018-05-04T18:59:28.488Z,15.70
2018-05-04T19:01:55.996Z,15.60
2018-05-04T19:04:24.321Z,15.50
2018-05-04T19:06:51.853Z,15.50
2018-05-04T19:09:19.369Z,15.40
2018-05-04T19:11:46.938Z,15.40
2018-05-04T19:14:15.190Z,15.30
2018-05-04T19:16:42.682Z,15.20
2018-05-04T19:19:10.945Z,15.00
2018-05-04T19:21:39.206Z,15.00
2018-05-04T19:24:06.706Z,14.90
2018-05-04T19:26:34.195Z,15.00
2018-05-04T19:29:01.718Z,14.90
2018-05-04T19:31:29.206Z,14.80
2018-05-04T19:33:56.690Z,14.80
2018-05-04T19:36:24.200Z,14.70
2018-05-04T19:38:51.693Z,14.70
2018-05-04T19:41:19.197Z,14.70
2018-05-04T19:43:47.442Z,14.50
2018-05-04T19:46:14.935Z,14.50
2018-05-04T19:48:43.342Z,14.40
2018-05-04T19:51:10.833Z,14.40
2018-05-04T19:53:38.315Z,14.40
2018-05-04T19:56:05.800Z,14.30
2018-05-04T19:58:33.286Z,14.40
2018-05-04T20:01:00.776Z,14.30
2018-05-04T20:03:28.407Z,14.20
2018-05-04T20:05:55.919Z,14.20
2018-05-04T20:08:24.169Z,14.10
2018-05-04T20:10:51.681Z,14.10
2018-05-04T20:13:19.232Z,14.10
2018-05-04T20:15:47.543Z,14.00
2018-05-04T20:18:15.994Z,14.00
2018-05-04T20:20:43.506Z,13.90
2018-05-04T20:23:11.059Z,13.90
2018-05-04T20:25:38.667Z,13.80
2018-05-04T20:28:06.156Z,13.80
2018-05-04T20:30:33.657Z,13.70
2018-05-04T20:33:01.136Z,13.70
2018-05-04T20:35:30.862Z,13.60
2018-05-04T20:37:58.617Z,13.50
2018-05-04T20:40:26.865Z,13.40
2018-05-04T20:42:54.352Z,13.40
2018-05-04T20:45:23.647Z,13.40
2018-05-04T20:47:51.892Z,13.20
2018-05-04T20:50:20.882Z,13.20
2018-05-04T20:52:48.356Z,13.10
2018-05-04T20:55:15.845Z,13.10
2018-05-04T20:57:43.365Z,13.10
2018-05-04T21:00:10.858Z,13.10
2018-05-04T21:02:38.349Z,13.10
2018-05-04T21:05:05.834Z,13.00
2018-05-04T21:07:33.333Z,13.00
2018-05-04T21:10:00.837Z,12.90
2018-05-04T21:12:28.323Z,12.90
2018-05-04T21:14:55.795Z,12.90
2018-05-04T21:17:24.072Z,12.80
2018-05-04T21:19:52.340Z,12.70
2018-05-04T21:22:19.817Z,12.70
2018-05-04T21:24:47.302Z,12.70
2018-05-04T21:27:14.787Z,12.70
2018-05-04T21:29:42.263Z,12.70
2018-05-04T21:32:09.747Z,12.70
2018-05-04T21:34:37.229Z,12.60
2018-05-04T21:37:04.725Z,12.60
2018-05-04T21:39:32.219Z,12.50
2018-05-04T21:42:00.477Z,12.50
2018-05-04T21:44:27.971Z,12.50
2018-05-04T21:46:55.462Z,12.40
2018-05-04T21:49:22.961Z,12.40
2018-05-04T21:51:51.266Z,12.30
2018-05-04T21:54:19.506Z,12.30
2018-05-04T21:56:47.762Z,12.20
2018-05-04T21:59:15.317Z,12.20
2018-05-04T22:01:43.512Z,12.20
2018-05-04T22:04:12.090Z,12.10
2018-05-04T22:06:39.626Z,12.10
2018-05-04T22:09:07.093Z,12.10
2018-05-04T22:11:34.602Z,12.10
2018-05-04T22:14:02.081Z,12.00
2018-05-04T22:16:29.562Z,12.00
2018-05-04T22:18:57.050Z,11.90
2018-05-04T22:21:25.306Z,11.90
2018-05-04T22:23:52.804Z,11.90
2018-05-04T22:26:21.058Z,11.70
2018-05-04T22:28:49.306Z,11.70
2018-05-04T22:31:16.802Z,11.70
2018-05-04T22:33:45.042Z,11.60
2018-05-04T22:36:12.542Z,11.60
2018-05-04T22:38:40.797Z,11.60
2018-05-04T22:41:08.285Z,11.60
2018-05-04T22:43:35.765Z,11.60
2018-05-04T22:46:03.257Z,11.60
2018-05-04T22:48:30.761Z,11.60
2018-05-04T22:50:58.258Z,11.50
2018-05-04T22:53:25.732Z,11.50
2018-05-04T22:55:53.222Z,11.50
2018-05-04T22:58:21.470Z,11.40
2018-05-04T23:00:48.987Z,11.40
2018-05-04T23:03:16.458Z,11.40
2018-05-04T23:05:43.956Z,11.40
2018-05-04T23:08:11.438Z,11.40
2018-05-04T23:10:39.694Z,11.30
2018-05-04T23:13:07.944Z,11.30
2018-05-04T23:15:35.439Z,11.30
2018-05-04T23:18:03.687Z,11.20
2018-05-04T23:20:31.200Z,11.20
2018-05-04T23:22:58.711Z,11.20
2018-05-04T23:25:26.197Z,11.10
2018-05-04T23:27:54.441Z,11.20
2018-05-04T23:30:21.941Z,11.20
2018-05-04T23:32:49.420Z,11.10
2018-05-04T23:35:16.910Z,11.10
2018-05-04T23:37:44.401Z,11.10
2018-05-04T23:40:12.666Z,11.00
2018-05-04T23:42:40.156Z,11.00
2018-05-04T23:45:07.639Z,11.00
2018-05-04T23:47:35.131Z,10.90
2018-05-04T23:50:02.624Z,11.00
2018-05-04T23:52:30.113Z,10.90
